Time;durP1;ratioP1;P1;durP2;ratioP2;P2;SDS_P1;SDS_P2;PMS_P1;PMS_P2;Temp;Humidity;BMP_temperature;BMP_pressure;BME280_temperature;BME280_humidity;BME280_pressure;Samples;Min_cycle;Max_cycle;Signal;HPM_P1;HPM_P2
2021/11/13 00:01:55;;;;;;;69.05;23.80;;;;;;;5.06;100.00;101775.38;1648456;86;21102;-86
2021/11/13 00:04:21;;;;;;;73.90;26.05;;;;;;;5.13;100.00;101780.28;1648229;86;21071;-85
2021/11/13 00:06:47;;;;;;;69.12;27.45;;;;;;;5.16;100.00;101776.70;1648291;86;21125;-85
2021/11/13 00:09:14;;;;;;;72.87;26.05;;;;;;;5.20;100.00;101780.62;1648128;87;21110;-85
2021/11/13 00:11:41;;;;;;;75.55;26.35;;;;;;;5.25;100.00;101784.06;1647975;87;21086;-85
2021/11/13 00:14:13;;;;;;;72.75;27.13;;;;;;;5.29;100.00;101789.84;1648201;86;21023;-85
2021/11/13 00:16:35;;;;;;;78.85;27.60;;;;;;;5.31;100.00;101785.14;1641467;87;21305;-85
2021/11/13 00:19:01;;;;;;;73.90;27.15;;;;;;;5.34;100.00;101786.90;1648265;86;20911;-85
2021/11/13 00:21:29;;;;;;;75.62;28.73;;;;;;;5.38;100.00;101784.17;1648046;86;21838;-85
2021/11/13 00:23:55;;;;;;;75.03;27.73;;;;;;;5.40;100.00;101791.98;1629781;87;21023;-85
2021/11/13 00:26:22;;;;;;;67.80;26.37;;;;;;;5.41;100.00;101782.44;1648379;86;21630;-84
2021/11/13 00:28:48;;;;;;;70.50;26.57;;;;;;;5.42;100.00;101783.27;1647946;87;21619;-85
2021/11/13 00:31:14;;;;;;;75.65;28.57;;;;;;;5.43;100.00;101788.39;1648125;86;21511;-84
2021/11/13 00:33:40;;;;;;;76.28;26.37;;;;;;;5.44;100.00;101784.72;1648280;86;21132;-85
2021/11/13 00:36:06;;;;;;;78.02;27.95;;;;;;;5.45;100.00;101787.70;1648491;87;20915;-85
2021/11/13 00:38:32;;;;;;;78.75;28.02;;;;;;;5.45;100.00;101792.23;1648447;86;21073;-85
2021/11/13 00:40:58;;;;;;;77.80;28.83;;;;;;;5.45;100.00;101790.89;1648090;86;20920;-85
2021/11/13 00:43:26;;;;;;;76.42;26.90;;;;;;;5.46;100.00;101796.54;1648106;87;20896;-85
2021/11/13 00:45:52;;;;;;;70.78;27.27;;;;;;;5.47;100.00;101790.16;1629468;87;21098;-85
2021/11/13 00:48:17;;;;;;;83.70;29.00;;;;;;;5.48;100.00;101788.34;1648304;86;20904;-86
2021/11/13 00:50:44;;;;;;;80.03;28.50;;;;;;;5.51;100.00;101786.61;1648471;86;20895;-85
2021/11/13 00:53:10;;;;;;;77.15;27.85;;;;;;;5.52;100.00;101789.59;1648356;86;21090;-85
2021/11/13 00:55:36;;;;;;;73.40;27.22;;;;;;;5.53;100.00;101796.57;1648189;86;21099;-85
2021/11/13 00:58:02;;;;;;;73.72;26.62;;;;;;;5.52;100.00;101792.26;1629400;87;21183;-85
2021/11/13 01:00:28;;;;;;;80.53;29.10;;;;;;;5.43;100.00;101797.75;1648036;86;20916;-85
2021/11/13 01:02:55;;;;;;;79.42;28.70;;;;;;;5.37;100.00;101793.70;1648111;86;20995;-85
2021/11/13 01:05:20;;;;;;;73.07;28.40;;;;;;;5.30;100.00;101798.20;1648391;86;21011;-85
2021/11/13 01:07:47;;;;;;;78.65;28.40;;;;;;;5.22;100.00;101801.83;1648299;86;21026;-85
2021/11/13 01:10:17;;;;;;;75.47;27.00;;;;;;;5.12;100.00;101796.83;1644871;87;21101;-85
2021/11/13 01:12:45;;;;;;;76.60;27.87;;;;;;;5.03;100.00;101796.66;1648292;87;20968;-85
2021/11/13 01:15:13;;;;;;;73.67;28.02;;;;;;;4.91;100.00;101796.36;1648330;86;21628;-85
2021/11/13 01:17:40;;;;;;;72.22;27.20;;;;;;;4.81;100.00;101794.50;1648130;87;21026;-85
2021/11/13 01:20:09;;;;;;;82.33;29.55;;;;;;;4.69;100.00;101797.38;1645245;87;21539;-85
2021/11/13 01:22:38;;;;;;;82.82;27.70;;;;;;;4.58;100.00;101803.22;1648137;86;21121;-85
2021/11/13 01:25:06;;;;;;;79.42;29.12;;;;;;;4.47;100.00;101808.05;1648115;86;21055;-85
2021/11/13 01:27:31;;;;;;;87.45;30.82;;;;;;;4.38;100.00;101805.16;1648288;86;20983;-85
2021/11/13 01:29:57;;;;;;;83.72;30.85;;;;;;;4.31;100.00;101805.61;1629806;87;20919;-85
2021/11/13 01:32:23;;;;;;;84.80;30.48;;;;;;;4.25;100.00;101804.52;1648435;87;21641;-86
2021/11/13 01:34:49;;;;;;;78.55;28.75;;;;;;;4.22;100.00;101812.08;1648268;87;22042;-85
2021/11/13 01:37:15;;;;;;;82.75;29.37;;;;;;;4.14;100.00;101806.33;1648161;86;20995;-85
2021/11/13 01:39:41;;;;;;;83.25;30.08;;;;;;;4.04;100.00;101806.63;1648331;86;20888;-86
2021/11/13 01:42:08;;;;;;;83.27;28.87;;;;;;;3.97;100.00;101813.73;1648313;86;21130;-86
2021/11/13 01:44:35;;;;;;;85.57;31.40;;;;;;;3.92;100.00;101817.45;1648308;86;21113;-85
2021/11/13 01:47:03;;;;;;;89.90;30.12;;;;;;;3.87;100.00;101810.00;1648501;86;21100;-86
2021/11/13 01:49:29;;;;;;;85.22;31.02;;;;;;;3.81;100.00;101812.08;1648527;86;21063;-86
2021/11/13 01:51:55;;;;;;;79.40;28.55;;;;;;;3.73;100.00;101804.16;1648525;86;21043;-85
2021/11/13 01:54:22;;;;;;;83.52;29.90;;;;;;;3.66;100.00;101807.26;1648511;86;20988;-86
2021/11/13 01:56:50;;;;;;;92.25;31.90;;;;;;;3.54;100.00;101808.73;1648456;86;21129;-86
2021/11/13 01:59:18;;;;;;;99.92;32.08;;;;;;;3.46;100.00;101802.97;1647962;87;21516;-86
2021/11/13 02:01:45;;;;;;;92.45;33.48;;;;;;;3.36;100.00;101806.42;1648204;86;20952;-86
2021/11/13 02:04:11;;;;;;;96.08;32.60;;;;;;;3.30;100.00;101803.98;1648565;86;20964;-86
2021/11/13 02:06:37;;;;;;;89.72;32.05;;;;;;;3.26;100.00;101801.84;1648287;87;21023;-86
2021/11/13 02:11:33;;;;;;;83.00;28.23;;;;;;;3.18;100.00;101818.75;1596808;89;21621;-86
2021/11/13 02:14:02;;;;;;;83.55;29.75;;;;;;;3.09;100.00;101819.33;1597153;89;21081;-86
2021/11/13 02:16:28;;;;;;;92.10;29.95;;;;;;;3.01;100.00;101818.06;1597053;89;21047;-86
2021/11/13 02:18:55;;;;;;;82.47;30.00;;;;;;;2.95;100.00;101819.59;1597143;89;20900;-87
2021/11/13 02:21:21;;;;;;;74.72;28.45;;;;;;;2.91;100.00;101824.11;1597111;89;21212;-86
2021/11/13 02:23:47;;;;;;;75.50;26.80;;;;;;;2.84;100.00;101824.52;1597087;89;22131;-87
2021/11/13 02:26:13;;;;;;;78.17;27.70;;;;;;;2.70;100.00;101825.59;1597189;89;21007;-87
2021/11/13 02:28:39;;;;;;;81.70;28.67;;;;;;;2.64;100.00;101831.63;1576268;89;20954;-87
2021/11/13 02:31:09;;;;;;;79.15;28.65;;;;;;;2.55;100.00;101830.54;1597602;89;21067;-86
2021/11/13 02:33:35;;;;;;;99.50;32.75;;;;;;;2.43;100.00;101834.92;1598881;89;21113;-88
2021/11/13 02:36:02;;;;;;;85.32;29.90;;;;;;;2.30;100.00;101835.19;1597002;89;21570;-86
2021/11/13 02:38:33;;;;;;;91.80;32.58;;;;;;;2.19;100.00;101840.39;1596914;89;21704;-87
2021/11/13 02:41:02;;;;;;;83.22;29.87;;;;;;;2.05;100.00;101840.60;1597059;89;21577;-87
2021/11/13 02:43:32;;;;;;;89.90;30.15;;;;;;;1.96;100.00;101843.80;1597234;89;21125;-87
2021/11/13 02:46:02;;;;;;;96.85;32.48;;;;;;;1.88;100.00;101850.46;1597095;89;21113;-87
2021/11/13 02:48:31;;;;;;;92.57;33.25;;;;;;;1.85;100.00;101853.46;1597226;89;21184;-87
2021/11/13 02:50:57;;;;;;;95.05;30.57;;;;;;;1.78;100.00;101855.16;1597282;89;21101;-87
2021/11/13 02:53:27;;;;;;;87.22;30.20;;;;;;;1.72;100.00;101852.67;1597098;89;21618;-87
2021/11/13 02:55:55;;;;;;;82.75;28.27;;;;;;;1.63;100.00;101855.03;1597118;89;21059;-87
2021/11/13 02:58:23;;;;;;;83.87;30.65;;;;;;;1.53;100.00;101853.90;1597204;89;21106;-86
2021/11/13 03:00:54;;;;;;;87.08;29.18;;;;;;;1.44;100.00;101852.26;1597216;89;21588;-87
2021/11/13 03:03:21;;;;;;;84.55;28.55;;;;;;;1.35;100.00;101859.88;1596979;89;21083;-88
2021/11/13 03:05:51;;;;;;;89.92;29.50;;;;;;;1.24;100.00;101857.09;1597082;89;21189;-87
2021/11/13 03:08:25;;;;;;;80.25;29.60;;;;;;;1.15;100.00;101855.43;1619583;87;21063;-88
2021/11/13 03:10:53;;;;;;;76.55;27.40;;;;;;;1.09;100.00;101865.39;1648268;86;21078;-87
2021/11/13 03:13:19;;;;;;;88.37;31.05;;;;;;;1.03;100.00;101863.38;1648510;86;21719;-87
2021/11/13 03:15:45;;;;;;;89.97;32.30;;;;;;;0.97;100.00;101873.32;1648096;86;20919;-86
2021/11/13 03:18:11;;;;;;;103.97;37.25;;;;;;;0.90;100.00;101876.64;1648297;86;21113;-86
2021/11/13 03:20:37;;;;;;;106.10;38.28;;;;;;;0.88;100.00;101876.47;1641384;87;21616;-87
2021/11/13 03:23:03;;;;;;;101.62;34.20;;;;;;;0.83;100.00;101874.32;1648255;87;21015;-86
2021/11/13 03:25:40;;;;;;;98.78;35.63;;;;;;;0.81;100.00;101874.14;1648539;86;21155;-87
2021/11/13 03:28:13;;;;;;;91.72;32.83;;;;;;;0.75;100.00;101874.80;1648015;86;21078;-86
2021/11/13 03:30:40;;;;;;;89.87;30.12;;;;;;;0.71;100.00;101874.77;1645380;87;21073;-87
2021/11/13 03:33:08;;;;;;;89.13;32.85;;;;;;;0.62;100.00;101876.11;1648190;87;37813;-86
2021/11/13 03:35:34;;;;;;;106.60;34.73;;;;;;;0.59;100.00;101872.93;1648353;86;21034;-86
2021/11/13 03:38:10;;;;;;;87.17;31.77;;;;;;;0.53;100.00;101878.88;1606170;87;21132;-86
2021/11/13 03:40:39;;;;;;;92.12;31.73;;;;;;;0.46;100.00;101882.69;1648410;86;21031;-87
2021/11/13 03:43:05;;;;;;;89.67;31.77;;;;;;;0.39;100.00;101883.83;1648224;86;21042;-87
2021/11/13 03:45:32;;;;;;;88.17;30.95;;;;;;;0.35;100.00;101885.13;1651953;86;21019;-87
2021/11/13 03:47:58;;;;;;;93.35;31.77;;;;;;;0.30;100.00;101887.45;1653157;86;21039;-89
2021/11/13 03:50:24;;;;;;;92.08;33.28;;;;;;;0.27;100.00;101891.75;1653357;86;22024;-86
2021/11/13 03:52:51;;;;;;;80.15;30.30;;;;;;;0.23;100.00;101890.38;1653223;86;21073;-87
2021/11/13 03:55:17;;;;;;;87.55;30.23;;;;;;;0.16;100.00;101885.40;1653269;86;21089;-86
2021/11/13 03:57:43;;;;;;;86.45;30.05;;;;;;;0.12;100.00;101887.55;1653180;86;20979;-86
2021/11/13 04:00:11;;;;;;;90.15;31.37;;;;;;;0.03;100.00;101899.10;1653095;86;21538;-86
2021/11/13 04:02:40;;;;;;;89.20;31.55;;;;;;;-0.02;100.00;101901.38;1653411;86;21047;-86
2021/11/13 04:05:06;;;;;;;91.67;32.98;;;;;;;-0.06;100.00;101902.67;1652902;86;21093;-86
2021/11/13 04:07:33;;;;;;;83.65;31.35;;;;;;;-0.10;100.00;101899.51;1653362;86;21003;-86
2021/11/13 04:09:59;;;;;;;85.12;31.37;;;;;;;-0.11;100.00;101899.68;1652898;86;21038;-87
2021/11/13 04:12:25;;;;;;;89.17;31.77;;;;;;;-0.12;100.00;101900.65;1653170;86;20935;-87
2021/11/13 04:14:51;;;;;;;92.30;33.63;;;;;;;-0.15;100.00;101904.94;1653397;86;21962;-86
2021/11/13 04:17:17;;;;;;;89.87;31.97;;;;;;;-0.19;100.00;101903.10;1653185;86;20990;-87
2021/11/13 04:19:42;;;;;;;106.43;32.33;;;;;;;-0.24;100.00;101910.21;1653097;86;21018;-86
2021/11/13 04:22:09;;;;;;;96.97;34.05;;;;;;;-0.30;100.00;101916.60;1653351;86;21557;-86
2021/11/13 04:24:35;;;;;;;82.75;29.23;;;;;;;-0.33;100.00;101928.33;1653256;86;22241;-86
2021/11/13 04:27:01;;;;;;;90.50;31.15;;;;;;;-0.35;100.00;101932.97;1653737;86;21161;-86
2021/11/13 04:29:27;;;;;;;87.20;30.65;;;;;;;-0.42;100.00;101929.27;1655367;86;21058;-86
2021/11/13 04:31:53;;;;;;;87.97;30.05;;;;;;;-0.42;100.00;101936.38;1653140;86;20923;-86
2021/11/13 04:34:22;;;;;;;88.85;30.85;;;;;;;-0.42;100.00;101941.67;1653150;86;21140;-86
2021/11/13 04:36:53;;;;;;;79.90;29.48;;;;;;;-0.46;100.00;101938.02;1652820;86;22107;-86
2021/11/13 04:39:23;;;;;;;69.62;26.85;;;;;;;-0.47;100.00;101939.02;1621966;88;21103;-86
2021/11/13 04:41:51;;;;;;;81.05;27.50;;;;;;;-0.47;100.00;101939.51;1622295;88;21087;-86
2021/11/13 04:44:17;;;;;;;75.80;27.37;;;;;;;-0.51;100.00;101942.93;1622696;88;21500;-86
2021/11/13 04:46:43;;;;;;;70.78;26.00;;;;;;;-0.57;100.00;101932.95;1625036;88;21151;-86
2021/11/13 04:49:09;;;;;;;77.80;27.35;;;;;;;-0.62;100.00;101943.16;1625489;88;21201;-86
2021/11/13 04:51:35;;;;;;;77.25;27.32;;;;;;;-0.64;100.00;101946.48;1624954;88;21115;-86
2021/11/13 04:54:02;;;;;;;68.65;24.70;;;;;;;-0.64;100.00;101947.80;1624986;88;21556;-86
2021/11/13 04:56:28;;;;;;;62.75;25.05;;;;;;;-0.62;100.00;101944.48;1625120;88;21742;-86
2021/11/13 04:58:54;;;;;;;59.13;22.85;;;;;;;-0.60;100.00;101945.17;1625221;88;21098;-86
2021/11/13 05:01:20;;;;;;;113.42;23.80;;;;;;;-0.54;100.00;101947.70;1625183;88;21088;-86
2021/11/13 05:03:46;;;;;;;79.82;26.15;;;;;;;-0.50;100.00;101955.20;1625146;88;21997;-87
2021/11/13 05:06:12;;;;;;;76.28;27.75;;;;;;;-0.44;100.00;101959.52;1624880;88;21076;-86
2021/11/13 05:08:37;;;;;;;81.70;26.40;;;;;;;-0.37;100.00;101970.69;1603164;88;20917;-86
2021/11/13 05:11:03;;;;;;;130.63;28.00;;;;;;;-0.29;100.00;101972.58;1624741;88;20948;-86
2021/11/13 05:13:29;;;;;;;74.90;26.05;;;;;;;-0.21;100.00;101977.91;1625149;88;21047;-86
2021/11/13 05:15:55;;;;;;;78.33;24.47;;;;;;;-0.16;100.00;101982.77;1624694;88;21170;-86
2021/11/13 05:18:22;;;;;;;91.92;25.90;;;;;;;-0.07;100.00;101989.78;1625042;88;21607;-86
2021/11/13 05:20:48;;;;;;;73.50;25.70;;;;;;;-0.02;100.00;101987.00;1624850;88;21138;-86
2021/11/13 05:23:14;;;;;;;74.47;24.27;;;;;;;0.06;100.00;101989.35;1625124;88;20932;-87
2021/11/13 05:25:40;;;;;;;73.55;25.02;;;;;;;0.15;100.00;101996.39;1625221;88;21126;-88
2021/11/13 05:28:06;;;;;;;78.33;26.05;;;;;;;0.24;100.00;101990.15;1625248;88;21159;-88
2021/11/13 05:30:32;;;;;;;67.90;23.65;;;;;;;0.41;100.00;101993.23;1624884;88;21096;-88
2021/11/13 05:32:58;;;;;;;75.17;25.08;;;;;;;0.61;100.00;101995.62;1625037;88;20948;-88
2021/11/13 05:35:25;;;;;;;70.45;24.43;;;;;;;0.86;100.00;101997.38;1629475;87;20976;-88
2021/11/13 05:37:53;;;;;;;72.30;24.77;;;;;;;1.00;100.00;102001.25;1648556;86;21101;-88
2021/11/13 05:40:20;;;;;;;67.27;24.05;;;;;;;1.26;100.00;102004.27;1648742;86;21113;-88
2021/11/13 05:42:46;;;;;;;65.57;23.77;;;;;;;1.71;100.00;102009.64;1648688;86;21019;-88
2021/11/13 05:45:14;;;;;;;68.30;23.95;;;;;;;2.53;100.00;102004.16;1648510;86;21542;-89
2021/11/13 05:47:41;;;;;;;62.20;23.15;;;;;;;3.40;100.00;102011.53;1645400;87;21050;-89
2021/11/13 05:50:12;;;;;;;57.55;22.42;;;;;;;4.25;100.00;102010.47;1648039;86;21074;-89
2021/11/13 05:52:41;;;;;;;60.92;22.45;;;;;;;5.27;100.00;102011.05;1648197;86;21981;-89
2021/11/13 05:55:09;;;;;;;51.20;21.02;;;;;;;6.48;100.00;102008.66;1648261;86;21071;-89
2021/11/13 05:57:35;;;;;;;53.68;21.07;;;;;;;7.56;100.00;102015.53;1648327;86;21027;-89
2021/11/13 06:00:01;;;;;;;47.58;21.15;;;;;;;8.45;100.00;102016.13;1648123;86;21026;-88
2021/11/13 06:02:27;;;;;;;52.53;20.97;;;;;;;9.19;100.00;102015.63;1648320;86;21771;-88
2021/11/13 06:04:53;;;;;;;52.00;21.60;;;;;;;10.15;100.00;102018.55;1648305;86;21737;-88
2021/11/13 06:07:19;;;;;;;52.45;22.17;;;;;;;10.64;100.00;102017.33;1648360;87;20919;-89
2021/11/13 06:09:44;;;;;;;48.73;22.00;;;;;;;10.79;100.00;102015.06;1648198;86;20998;-89
2021/11/13 06:12:11;;;;;;;49.30;21.23;;;;;;;11.46;100.00;102013.66;1645009;86;20888;-89
2021/11/13 06:14:36;;;;;;;51.55;22.70;;;;;;;12.55;100.00;102018.68;1648315;86;21034;-89
2021/11/13 06:17:03;;;;;;;59.23;25.52;;;;;;;13.79;100.00;102024.02;1648205;86;21180;-89
2021/11/13 06:19:30;;;;;;;50.15;24.00;;;;;;;14.57;100.00;102026.84;1647807;87;22292;-89
2021/11/13 06:21:55;;;;;;;47.10;23.32;;;;;;;15.31;100.00;102027.16;1629711;87;21504;-89
2021/11/13 06:24:21;;;;;;;50.10;25.10;;;;;;;15.97;100.00;102031.55;1649221;86;20919;-89
2021/11/13 06:26:47;;;;;;;48.05;25.23;;;;;;;16.79;99.65;102024.71;1626097;85;21022;-90
2021/11/13 06:29:14;;;;;;;46.55;24.37;;;;;;;17.52;81.28;102021.89;1673645;84;21141;-89
2021/11/13 06:31:40;;;;;;;40.17;21.93;;;;;;;18.07;83.72;102014.81;1666863;85;21068;-88
2021/11/13 06:34:07;;;;;;;41.28;22.73;;;;;;;18.75;71.17;102023.92;1671076;85;21434;-87
2021/11/13 06:36:33;;;;;;;35.25;20.23;;;;;;;19.42;67.98;102027.11;1674559;85;21089;-88
2021/11/13 06:38:59;;;;;;;40.98;21.10;;;;;;;19.86;60.86;102020.77;1671801;85;20969;-88
2021/11/13 06:41:29;;;;;;;37.95;20.97;;;;;;;20.27;58.02;102022.30;1673428;85;21594;-88
2021/11/13 06:43:53;;;;;;;31.77;18.67;;;;;;;20.86;55.67;102023.24;1669269;85;21137;-89
2021/11/13 06:46:19;;;;;;;36.35;20.17;;;;;;;21.36;54.62;102016.52;1674673;85;21022;-90
2021/11/13 06:48:45;;;;;;;45.00;19.73;;;;;;;22.09;52.54;102021.88;1676052;85;20990;-87
2021/11/13 06:51:11;;;;;;;33.35;19.95;;;;;;;22.52;49.98;102023.02;1685226;85;21015;-88
2021/11/13 06:53:37;;;;;;;32.93;18.85;;;;;;;23.44;47.87;102016.34;1685201;84;21259;-89
2021/11/13 06:56:03;;;;;;;32.38;18.55;;;;;;;24.40;45.09;102019.63;1685215;85;20908;-89
2021/11/13 06:58:29;;;;;;;31.62;18.27;;;;;;;24.89;44.04;102022.63;1685184;85;21105;-89
2021/11/13 07:00:55;;;;;;;30.48;18.77;;;;;;;25.77;44.11;102022.06;1684807;85;20931;-89
2021/11/13 07:05:49;;;;;;;32.90;19.15;;;;;;;26.18;37.72;102026.19;1634671;85;21050;-88
2021/11/13 07:08:15;;;;;;;31.50;19.32;;;;;;;25.95;39.17;102025.61;1634689;85;21026;-88
2021/11/13 07:10:41;;;;;;;34.15;19.75;;;;;;;26.31;38.13;102028.48;1634824;86;20990;-88
2021/11/13 07:13:07;;;;;;;28.60;18.32;;;;;;;26.70;36.25;102030.08;1632945;86;21641;-88
2021/11/13 07:15:33;;;;;;;33.15;18.62;;;;;;;26.78;34.33;102028.42;1634969;85;20959;-87
2021/11/13 07:18:02;;;;;;;29.52;19.17;;;;;;;26.26;34.64;102028.89;1634990;85;21864;-87
2021/11/13 07:20:29;;;;;;;36.40;19.35;;;;;;;26.17;34.89;102019.83;1634615;85;21085;-87
2021/11/13 07:22:56;;;;;;;29.80;19.45;;;;;;;26.35;33.50;102021.94;1634864;85;21098;-87
2021/11/13 07:25:25;;;;;;;28.92;18.62;;;;;;;26.33;33.56;102015.16;1634619;85;21138;-86
2021/11/13 07:27:51;;;;;;;30.32;19.10;;;;;;;26.40;33.56;102014.85;1634680;85;21094;-86
2021/11/13 07:30:20;;;;;;;30.92;19.02;;;;;;;26.79;33.03;102016.20;1634770;85;21079;-86
2021/11/13 07:32:48;;;;;;;35.25;18.90;;;;;;;27.26;32.34;102016.84;1634585;85;21050;-86
2021/11/13 07:35:14;;;;;;;29.77;18.85;;;;;;;27.17;31.98;102018.30;1634824;85;21634;-86
2021/11/13 07:37:40;;;;;;;34.18;19.02;;;;;;;27.30;32.51;102026.11;1635051;85;21035;-86
2021/11/13 07:40:08;;;;;;;28.65;17.75;;;;;;;27.55;31.21;102027.58;1634990;86;21030;-86
2021/11/13 07:42:34;;;;;;;26.27;17.10;;;;;;;27.35;31.51;102030.03;1634651;85;21308;-86
2021/11/13 07:45:04;;;;;;;27.85;16.97;;;;;;;27.11;31.23;102032.08;1635106;85;21063;-86
2021/11/13 07:47:28;;;;;;;28.60;16.90;;;;;;;27.44;31.62;102029.95;1640706;85;21056;-85
2021/11/13 07:49:54;;;;;;;25.30;16.23;;;;;;;27.53;31.06;102033.47;1621337;86;21624;-86
2021/11/13 07:52:20;;;;;;;26.57;16.67;;;;;;;28.08;31.09;102030.05;1644429;86;20973;-86
2021/11/13 07:54:46;;;;;;;24.63;15.63;;;;;;;27.95;29.19;102042.28;1565872;91;21164;-86
2021/11/13 07:57:12;;;;;;;26.73;15.53;;;;;;;27.20;29.77;102040.34;1566022;90;20938;-85
2021/11/13 07:59:38;;;;;;;23.87;15.43;;;;;;;26.69;30.01;102043.69;1566279;90;21695;-85
2021/11/13 08:02:06;;;;;;;22.37;15.25;;;;;;;26.04;30.20;102053.45;1573418;88;20921;-86
2021/11/13 08:04:32;;;;;;;24.02;16.23;;;;;;;25.88;30.83;102064.77;1594670;89;21119;-85
2021/11/13 08:06:58;;;;;;;23.62;15.53;;;;;;;25.66;30.88;102058.86;1597735;88;21154;-85
2021/11/13 08:09:24;;;;;;;24.47;15.50;;;;;;;25.78;30.95;102063.72;1597591;88;20955;-85
2021/11/13 08:11:50;;;;;;;24.30;15.32;;;;;;;25.45;30.87;102064.81;1597398;89;20924;-85
2021/11/13 08:14:18;;;;;;;28.50;15.68;;;;;;;25.14;31.22;102054.72;1597692;88;20952;-85
2021/11/13 08:16:43;;;;;;;30.77;16.37;;;;;;;24.91;32.07;102061.73;1597534;88;21618;-85
2021/11/13 08:19:09;;;;;;;29.20;16.07;;;;;;;23.93;32.27;102052.30;1631986;85;21164;-85
2021/11/13 08:21:38;;;;;;;30.72;16.12;;;;;;;22.68;33.31;102063.63;1682943;84;21082;-85
2021/11/13 08:24:05;;;;;;;34.30;16.10;;;;;;;21.20;34.93;102077.61;1682763;85;21134;-85
2021/11/13 08:26:31;;;;;;;30.72;15.60;;;;;;;19.64;36.70;102079.98;1683066;84;21168;-85
2021/11/13 08:28:57;;;;;;;34.03;15.00;;;;;;;18.55;38.31;102073.93;1682088;84;21135;-84
2021/11/13 08:31:28;;;;;;;29.82;14.53;;;;;;;17.79;39.89;102074.02;1670950;84;21111;-84
2021/11/13 08:33:53;;;;;;;37.10;15.23;;;;;;;16.65;41.31;102076.60;1584497;90;21080;-84
2021/11/13 08:36:20;;;;;;;35.65;14.50;;;;;;;15.42;43.99;102066.94;1592823;89;21076;-84
2021/11/13 08:38:46;;;;;;;33.88;15.50;;;;;;;14.49;46.09;102066.84;1598994;88;21370;-84
2021/11/13 08:41:12;;;;;;;33.92;14.53;;;;;;;13.76;48.56;102063.80;1592866;88;21619;-84
2021/11/13 08:43:38;;;;;;;34.55;14.35;;;;;;;13.21;50.98;102067.93;1584702;90;21139;-84
2021/11/13 08:46:05;;;;;;;38.10;15.08;;;;;;;12.80;54.79;102066.28;1597088;88;20929;-83
2021/11/13 08:48:31;;;;;;;37.55;15.25;;;;;;;12.47;58.81;102071.77;1599024;88;21030;-84
2021/11/13 08:50:57;;;;;;;37.17;15.93;;;;;;;12.34;63.72;102067.96;1598877;88;21247;-84
2021/11/13 08:53:23;;;;;;;36.93;15.50;;;;;;;12.11;68.26;102069.58;1598976;88;21073;-83
2021/11/13 08:55:49;;;;;;;40.28;16.10;;;;;;;11.85;72.54;102060.02;1596868;88;21842;-83
2021/11/13 08:58:18;;;;;;;37.65;15.30;;;;;;;11.67;75.41;102070.34;1591593;87;21521;-85
2021/11/13 09:00:52;;;;;;;36.70;14.87;;;;;;;11.56;79.56;102059.02;1586725;90;21126;-84
2021/11/13 09:03:32;;;;;;;35.65;14.23;;;;;;;11.45;82.57;102056.56;1589928;90;21641;-84
2021/11/13 09:06:01;;;;;;;37.63;14.53;;;;;;;11.29;85.58;102059.35;1588541;90;21123;-84
2021/11/13 09:08:28;;;;;;;36.58;14.05;;;;;;;11.15;87.95;102064.66;1590123;90;21321;-84
2021/11/13 09:10:56;;;;;;;38.05;13.62;;;;;;;10.98;90.34;102059.58;1589802;90;21075;-84
2021/11/13 09:13:26;;;;;;;38.28;13.35;;;;;;;10.84;93.17;102060.25;1589419;90;21242;-84
2021/11/13 09:15:54;;;;;;;38.02;14.40;;;;;;;10.82;94.70;102067.20;1590003;90;21064;-84
2021/11/13 09:18:21;;;;;;;36.30;13.55;;;;;;;10.65;96.10;102068.88;1593633;88;21097;-84
2021/11/13 09:20:47;;;;;;;43.00;17.10;;;;;;;10.50;98.83;102065.69;1588264;89;21978;-84
2021/11/13 09:23:13;;;;;;;31.70;14.00;;;;;;;10.49;100.00;102070.79;1585016;90;21012;-84
2021/11/13 09:25:43;;;;;;;35.58;14.60;;;;;;;10.52;100.00;102066.30;1584827;90;21092;-84
2021/11/13 09:28:10;;;;;;;37.50;14.05;;;;;;;10.45;100.00;102068.54;1584896;90;21568;-84
2021/11/13 09:30:37;;;;;;;39.20;14.75;;;;;;;10.40;100.00;102068.38;1612445;87;21543;-84
2021/11/13 09:33:04;;;;;;;31.97;12.25;;;;;;;10.35;100.00;102062.00;1647311;87;21037;-84
2021/11/13 09:35:30;;;;;;;30.43;12.80;;;;;;;10.23;100.00;102072.64;1650811;86;20995;-84
2021/11/13 09:37:57;;;;;;;33.05;13.93;;;;;;;10.20;100.00;102070.39;1633152;85;21002;-85
2021/11/13 09:40:27;;;;;;;37.00;14.25;;;;;;;10.05;100.00;102045.67;1660938;85;21062;-85
2021/11/13 09:42:57;;;;;;;38.42;14.30;;;;;;;10.07;100.00;102059.22;1667405;85;21495;-85
2021/11/13 09:45:24;;;;;;;40.67;14.15;;;;;;;9.94;100.00;102057.47;1675934;85;21118;-85
2021/11/13 09:47:53;;;;;;;34.98;13.60;;;;;;;9.98;100.00;102068.09;1675337;85;21106;-85
2021/11/13 09:50:23;;;;;;;36.17;14.95;;;;;;;9.98;100.00;102065.41;1672592;85;21503;-86
2021/11/13 09:52:49;;;;;;;34.85;12.78;;;;;;;9.99;100.00;102068.39;1655912;85;21079;-85
2021/11/13 09:55:19;;;;;;;40.38;13.72;;;;;;;9.98;100.00;102061.36;1669378;85;21000;-84
2021/11/13 09:57:47;;;;;;;36.30;13.38;;;;;;;10.01;100.00;102061.45;1652788;86;22420;-85
2021/11/13 10:00:23;;;;;;;37.23;12.65;;;;;;;10.07;100.00;102062.44;1656007;84;21729;-84
2021/11/13 10:02:54;;;;;;;34.35;12.63;;;;;;;10.06;100.00;102060.27;1662036;84;21076;-84
2021/11/13 10:05:20;;;;;;;36.58;12.85;;;;;;;10.07;100.00;102065.95;1668445;84;21038;-84
2021/11/13 10:07:47;;;;;;;35.13;12.73;;;;;;;10.04;100.00;102066.92;1665754;85;21032;-84
2021/11/13 10:10:32;;;;;;;34.53;12.82;;;;;;;10.04;100.00;102070.44;1651431;86;21887;-84
2021/11/13 10:13:00;;;;;;;36.93;13.35;;;;;;;9.98;100.00;102070.79;1633208;86;21049;-84
2021/11/13 10:15:31;;;;;;;35.88;13.08;;;;;;;10.00;100.00;102070.05;1635427;87;21062;-84
2021/11/13 10:18:20;;;;;;;36.15;13.15;;;;;;;10.05;100.00;102073.95;1634105;87;21093;-84
2021/11/13 10:21:00;;;;;;;36.53;12.58;;;;;;;10.07;100.00;102073.22;1632228;87;21046;-85
2021/11/13 10:23:31;;;;;;;28.98;12.73;;;;;;;10.06;100.00;102074.24;1543846;92;21128;-85
2021/11/13 10:26:21;;;;;;;34.98;12.18;;;;;;;10.04;100.00;102076.34;1544003;92;21059;-85
2021/11/13 10:28:55;;;;;;;33.98;12.63;;;;;;;10.04;100.00;102073.13;1543484;92;21020;-85
2021/11/13 10:31:34;;;;;;;32.63;11.63;;;;;;;10.00;100.00;102070.05;1541494;92;21023;-84
2021/11/13 10:34:05;;;;;;;27.82;11.00;;;;;;;9.94;100.00;102064.20;1543650;92;21600;-84
2021/11/13 10:36:37;;;;;;;33.95;11.48;;;;;;;9.95;100.00;102069.88;1543900;92;21245;-85
2021/11/13 10:39:11;;;;;;;31.17;12.40;;;;;;;9.98;100.00;102065.41;1543505;92;21459;-84
2021/11/13 10:41:50;;;;;;;35.70;11.97;;;;;;;10.05;100.00;102060.48;1543933;92;21087;-84
2021/11/13 10:44:34;;;;;;;30.43;10.43;;;;;;;10.13;100.00;102066.42;1542216;92;21074;-84
2021/11/13 10:47:04;;;;;;;26.27;10.23;;;;;;;10.15;100.00;102064.87;1539245;92;21173;-84
2021/11/13 10:49:30;;;;;;;31.68;10.50;;;;;;;10.17;100.00;102065.45;1536384;93;21945;-84
2021/11/13 10:52:00;;;;;;;31.65;9.83;;;;;;;10.17;100.00;102062.23;1499070;95;21031;-85
2021/11/13 10:54:28;;;;;;;31.97;10.60;;;;;;;10.18;100.00;102057.69;1536725;93;21114;-84
2021/11/13 10:57:02;;;;;;;23.75;8.13;;;;;;;10.20;100.00;102056.92;1499229;95;21090;-84
2021/11/13 10:59:33;;;;;;;26.07;9.28;;;;;;;10.19;100.00;102058.80;1514549;93;21560;-84
2021/11/13 11:02:04;;;;;;;25.25;10.00;;;;;;;10.20;100.00;102052.35;1467608;96;21206;-84
2021/11/13 11:04:35;;;;;;;30.50;9.08;;;;;;;10.20;100.00;102055.05;1413217;100;21188;-85
2021/11/13 11:07:12;;;;;;;32.98;9.53;;;;;;;10.22;100.00;102050.27;1414016;101;21136;-84
2021/11/13 11:09:45;;;;;;;24.27;9.83;;;;;;;10.22;100.00;102046.77;1403771;101;21184;-84
2021/11/13 11:12:19;;;;;;;29.12;9.53;;;;;;;10.19;100.00;102048.02;1435404;99;27116;-84
2021/11/13 11:14:52;;;;;;;31.23;10.43;;;;;;;10.19;100.00;102043.16;1435255;99;21295;-84